createdAt,value
2018-04-14T00:01:56.158Z,100757.47
2018-04-14T00:04:24.449Z,100764.22
2018-04-14T00:06:53.237Z,100768.03
2018-04-14T00:09:24.731Z,100764.41
2018-04-14T00:20:52.067Z,100771.55
2018-04-14T00:23:20.541Z,100772.34
2018-04-14T00:25:58.336Z,100772.50
2018-04-14T00:28:33.197Z,100770.09
2018-04-14T00:31:14.515Z,100773.72
2018-04-14T00:33:47.124Z,100770.41
2018-04-14T00:40:25.894Z,100784.05
2018-04-14T00:46:09.975Z,100790.27
2018-04-14T00:51:35.574Z,100790.39
2018-04-14T00:54:19.448Z,100784.88
2018-04-14T00:56:48.755Z,100780.99
2018-04-14T00:59:35.422Z,100783.41
2018-04-14T01:08:18.131Z,100781.84
2018-04-14T01:10:48.724Z,100781.55
2018-04-14T01:13:17.061Z,100779.80
2018-04-14T01:15:47.019Z,100785.03
2018-04-14T01:21:06.175Z,100792.05
2018-04-14T01:40:21.006Z,100792.66
2018-04-14T01:43:11.377Z,100789.42
2018-04-14T01:48:56.905Z,100798.41
2018-04-14T01:51:33.546Z,100797.61
2018-04-14T01:56:44.518Z,100797.62
2018-04-14T01:59:14.128Z,100791.88
2018-04-14T02:01:52.274Z,100798.46
2018-04-14T02:04:28.839Z,100800.49
2018-04-14T02:06:58.633Z,100795.40
2018-04-14T02:12:51.946Z,100789.89
2018-04-14T02:18:34.781Z,100793.37
2018-04-14T02:25:01.112Z,100803.59
2018-04-14T02:27:38.831Z,100809.10
2018-04-14T02:35:39.733Z,100804.80
2018-04-14T02:40:52.545Z,100809.07
2018-04-14T02:46:32.954Z,100803.58
2018-04-14T02:49:26.826Z,100805.46
2018-04-14T02:54:55.687Z,100803.83
2018-04-14T02:57:42.010Z,100813.25
2018-04-14T03:00:16.611Z,100809.22
2018-04-14T03:11:09.728Z,100819.55
2018-04-14T03:13:47.845Z,100820.37
2018-04-14T03:19:28.402Z,100832.70
2018-04-14T03:25:30.605Z,100832.98
2018-04-14T03:31:13.163Z,100834.60
2018-04-14T03:36:49.597Z,100847.19
2018-04-14T03:39:37.771Z,100840.95
2018-04-14T03:44:53.575Z,100847.30
2018-04-14T03:47:21.209Z,100846.75
2018-04-14T03:49:48.812Z,100847.42
2018-04-14T03:52:16.402Z,100848.23
2018-04-14T03:54:44.049Z,100858.28
2018-04-14T03:57:11.628Z,100862.52
2018-04-14T03:59:39.297Z,100866.64
2018-04-14T04:02:06.901Z,100871.90
2018-04-14T04:04:34.536Z,100870.59
2018-04-14T04:07:02.140Z,100871.47
2018-04-14T04:09:29.801Z,100871.70
2018-04-14T04:11:57.401Z,100879.14
2018-04-14T04:14:25.032Z,100885.42
2018-04-14T04:16:52.639Z,100889.19
2018-04-14T04:19:31.899Z,100895.27
2018-04-14T04:22:10.989Z,100898.27
2018-04-14T04:24:50.237Z,100896.41
2018-04-14T04:27:17.831Z,100904.74
2018-04-14T04:29:45.482Z,100905.00
2018-04-14T04:32:13.121Z,100912.13
2018-04-14T04:34:40.744Z,100912.39
2018-04-14T04:37:08.344Z,100917.12
2018-04-14T04:39:36.005Z,100918.09
2018-04-14T04:42:03.640Z,100917.95
2018-04-14T04:44:31.285Z,100919.38
2018-04-14T04:46:58.890Z,100917.34
2018-04-14T04:49:26.530Z,100927.70
2018-04-14T04:51:54.138Z,100919.02
2018-04-14T04:54:21.813Z,100914.23
2018-04-14T04:56:49.451Z,100917.84
2018-04-14T04:59:17.118Z,100925.91
2018-04-14T05:01:44.753Z,100936.79
2018-04-14T05:04:12.371Z,100942.42
2018-04-14T05:06:40.006Z,100942.17
2018-04-14T05:09:07.596Z,100947.14
2018-04-14T05:11:35.251Z,100954.45
2018-04-14T05:14:02.856Z,100960.26
2018-04-14T05:16:30.500Z,100955.50
2018-04-14T05:18:58.107Z,100959.02
2018-04-14T05:21:25.782Z,100965.38
2018-04-14T05:23:53.389Z,100960.73
2018-04-14T05:26:21.097Z,100967.46
2018-04-14T05:28:48.684Z,100961.45
2018-04-14T05:31:16.308Z,100970.04
2018-04-14T05:33:43.945Z,100980.94
2018-04-14T05:36:11.521Z,100981.75
2018-04-14T05:38:39.197Z,100977.31
2018-04-14T05:41:06.801Z,100979.41
2018-04-14T05:43:34.420Z,100988.16
2018-04-14T05:46:02.038Z,100979.73
2018-04-14T05:48:29.722Z,100988.44
2018-04-14T05:50:57.379Z,100989.52
2018-04-14T05:53:24.978Z,100986.16
2018-04-14T05:55:52.571Z,100998.09
2018-04-14T05:58:20.207Z,100988.17
2018-04-14T06:00:47.808Z,100994.00
2018-04-14T06:03:15.501Z,100997.52
2018-04-14T06:05:43.158Z,100995.62
2018-04-14T06:08:10.840Z,101005.80
2018-04-14T06:10:38.500Z,101015.22
2018-04-14T06:13:06.151Z,101007.31
2018-04-14T06:15:33.829Z,101016.59
2018-04-14T06:18:01.429Z,101011.59
2018-04-14T06:20:29.057Z,101014.02
2018-04-14T06:22:56.664Z,101015.86
2018-04-14T06:25:24.301Z,101021.78
2018-04-14T06:27:51.918Z,101019.59
2018-04-14T06:30:19.576Z,101024.16
2018-04-14T06:32:47.183Z,101026.97
2018-04-14T06:35:14.820Z,101035.07
2018-04-14T06:37:42.450Z,101028.53
2018-04-14T06:40:10.113Z,101033.00
2018-04-14T06:42:37.767Z,101035.59
2018-04-14T06:45:05.489Z,101034.81
2018-04-14T06:47:33.089Z,101035.66
2018-04-14T06:50:00.758Z,101047.41
2018-04-14T06:52:28.388Z,101055.17
2018-04-14T06:54:56.090Z,101056.00
2018-04-14T06:57:23.760Z,101060.45
2018-04-14T06:59:51.365Z,101058.94
2018-04-14T07:02:19.068Z,101066.59
2018-04-14T07:04:46.693Z,101073.75
2018-04-14T07:07:14.405Z,101073.38
2018-04-14T07:09:42.074Z,101078.08
2018-04-14T07:12:09.794Z,101081.58
2018-04-14T07:14:37.747Z,101076.37
2018-04-14T07:17:05.426Z,101068.03
2018-04-14T07:19:33.162Z,101073.95
2018-04-14T07:22:00.806Z,101081.23
2018-04-14T07:24:28.442Z,101083.38
2018-04-14T07:26:56.188Z,101078.41
2018-04-14T07:29:23.949Z,101080.42
2018-04-14T07:31:52.797Z,101081.77
2018-04-14T07:34:20.680Z,101088.92
2018-04-14T07:36:48.382Z,101092.00
2018-04-14T07:39:16.003Z,101089.88
2018-04-14T07:41:43.628Z,101096.61
2018-04-14T07:44:11.280Z,101099.83
2018-04-14T07:46:38.913Z,101103.17
2018-04-14T07:49:06.580Z,101099.97
2018-04-14T07:51:34.219Z,101101.56
2018-04-14T07:54:01.903Z,101111.00
2018-04-14T07:56:29.548Z,101112.06
2018-04-14T07:58:57.234Z,101111.28
2018-04-14T08:01:24.878Z,101111.28
2018-04-14T08:03:52.596Z,101118.94
2018-04-14T08:06:20.261Z,101115.97
2018-04-14T08:08:48.053Z,101121.08
2018-04-14T08:11:15.706Z,101118.16
2018-04-14T08:13:43.362Z,101126.34
2018-04-14T08:16:10.997Z,101125.13
2018-04-14T08:18:38.675Z,101127.55
2018-04-14T08:21:06.290Z,101126.76
2018-04-14T08:23:33.950Z,101132.80
2018-04-14T08:26:01.604Z,101135.48
2018-04-14T08:28:29.526Z,101132.52
2018-04-14T08:30:57.173Z,101137.22
2018-04-14T08:33:24.845Z,101140.70
2018-04-14T08:35:52.518Z,101142.97
2018-04-14T08:38:20.120Z,101147.51
2018-04-14T08:40:47.938Z,101150.70
2018-04-14T08:43:15.544Z,101160.13
2018-04-14T08:45:43.337Z,101162.64
2018-04-14T08:48:10.934Z,101157.36
2018-04-14T08:50:38.830Z,101157.01
2018-04-14T08:53:06.463Z,101149.70
2018-04-14T08:55:34.151Z,101154.94
2018-04-14T08:58:01.779Z,101160.83
2018-04-14T09:00:29.630Z,101154.91
2018-04-14T09:02:57.285Z,101160.13
2018-04-14T09:05:25.154Z,101159.14
2018-04-14T09:07:52.780Z,101157.84
2018-04-14T09:10:20.641Z,101159.23
2018-04-14T09:12:49.318Z,101161.41
2018-04-14T09:15:17.184Z,101162.30
2018-04-14T09:17:44.817Z,101162.11
2018-04-14T09:20:12.439Z,101162.20
2018-04-14T09:22:40.149Z,101164.16
2018-04-14T09:25:07.866Z,101170.61
2018-04-14T09:27:35.538Z,101170.49
2018-04-14T09:30:03.197Z,101166.88
2018-04-14T09:32:30.896Z,101169.11
2018-04-14T09:34:58.571Z,101164.80
2018-04-14T09:37:26.295Z,101161.25
2018-04-14T09:39:54.045Z,101170.89
2018-04-14T09:42:21.781Z,101170.02
2018-04-14T09:44:49.544Z,101173.50
2018-04-14T09:47:17.304Z,101176.05
2018-04-14T09:49:44.947Z,101176.80
2018-04-14T09:52:12.772Z,101177.06
2018-04-14T09:54:40.597Z,101174.23
2018-04-14T09:57:08.425Z,101169.54
2018-04-14T09:59:36.057Z,101173.27
2018-04-14T10:02:03.737Z,101175.39
2018-04-14T10:04:31.569Z,101177.22
2018-04-14T10:06:59.192Z,101171.31
2018-04-14T10:09:26.866Z,101165.08
2018-04-14T10:11:55.558Z,101167.36
2018-04-14T10:14:23.276Z,101163.77
2018-04-14T10:16:50.947Z,101161.03
2018-04-14T10:19:18.604Z,101160.27
2018-04-14T10:21:46.246Z,101163.89
2018-04-14T10:24:13.967Z,101168.63
2018-04-14T10:26:41.705Z,101161.20
2018-04-14T10:29:09.461Z,101157.30
2018-04-14T10:31:37.169Z,101153.33
2018-04-14T10:34:05.204Z,101150.23
2018-04-14T10:36:32.857Z,101153.34
2018-04-14T10:39:00.504Z,101155.42
2018-04-14T10:41:28.161Z,101149.89
2018-04-14T10:43:55.801Z,101144.73
2018-04-14T10:46:23.483Z,101143.31
2018-04-14T10:48:51.132Z,101144.00
2018-04-14T10:51:18.782Z,101146.72
2018-04-14T10:53:46.490Z,101146.83
2018-04-14T10:56:14.118Z,101148.15
2018-04-14T10:58:41.769Z,101143.29
2018-04-14T11:01:09.452Z,101142.76
2018-04-14T11:03:37.176Z,101144.97
2018-04-14T11:06:04.842Z,101148.83
2018-04-14T11:08:32.474Z,101149.60
2018-04-14T11:11:00.111Z,101151.39
2018-04-14T11:13:27.738Z,101151.46
2018-04-14T11:15:55.453Z,101154.38
2018-04-14T11:18:23.077Z,101147.17
2018-04-14T11:20:50.729Z,101149.91
2018-04-14T11:23:18.380Z,101148.34
2018-04-14T11:25:46.078Z,101146.52
2018-04-14T11:28:13.797Z,101144.35
2018-04-14T11:30:41.459Z,101144.14
2018-04-14T11:33:09.123Z,101141.59
2018-04-14T11:35:36.751Z,101139.41
2018-04-14T11:38:04.394Z,101143.39
2018-04-14T11:40:32.010Z,101143.91
2018-04-14T11:42:59.745Z,101136.45
2018-04-14T11:45:27.357Z,101149.64
2018-04-14T11:47:55.004Z,101143.78
2018-04-14T11:50:22.618Z,101139.13
2018-04-14T11:52:50.256Z,101137.55
2018-04-14T11:55:17.908Z,101141.80
2018-04-14T11:57:45.557Z,101144.70
2018-04-14T12:00:13.171Z,101149.35
2018-04-14T12:02:40.801Z,101150.27
2018-04-14T12:05:08.673Z,101161.25
2018-04-14T12:07:36.547Z,101157.11
2018-04-14T12:10:04.461Z,101161.03
2018-04-14T12:12:35.113Z,101157.25
2018-04-14T12:15:02.862Z,101153.30
2018-04-14T12:17:30.541Z,101149.91
2018-04-14T12:19:58.257Z,101153.11
2018-04-14T12:22:25.995Z,101151.21
2018-04-14T12:24:53.673Z,101150.55
2018-04-14T12:27:21.482Z,101147.74
2018-04-14T12:29:49.124Z,101151.20
2018-04-14T12:32:16.793Z,101145.52
2018-04-14T12:34:44.449Z,101151.73
2018-04-14T12:37:12.076Z,101150.67
2018-04-14T12:39:39.927Z,101153.26
2018-04-14T12:42:07.545Z,101142.23
2018-04-14T12:44:35.189Z,101135.58
2018-04-14T12:47:02.845Z,101143.19
2018-04-14T12:49:30.469Z,101149.91
2018-04-14T12:51:58.113Z,101145.75
2018-04-14T12:54:25.813Z,101149.02
2018-04-14T12:56:53.565Z,101145.98
2018-04-14T12:59:21.235Z,101146.45
2018-04-14T13:01:48.858Z,101149.05
2018-04-14T13:04:16.525Z,101140.45
2018-04-14T13:06:44.121Z,101144.21
2018-04-14T13:09:11.786Z,101139.33
2018-04-14T13:11:39.412Z,101130.56
2018-04-14T13:14:07.033Z,101142.02
2018-04-14T13:16:34.676Z,101138.31
2018-04-14T13:19:02.294Z,101135.03
2018-04-14T13:21:30.038Z,101135.29
2018-04-14T13:23:57.668Z,101132.34
2018-04-14T13:26:25.325Z,101132.19
2018-04-14T13:28:52.949Z,101141.76
2018-04-14T13:31:20.584Z,101140.05
2018-04-14T13:33:48.221Z,101142.28
2018-04-14T13:36:15.861Z,101141.95
2018-04-14T13:38:43.505Z,101136.13
2018-04-14T13:41:11.142Z,101129.80
2018-04-14T13:43:38.748Z,101124.23
2018-04-14T13:46:06.399Z,101124.36
2018-04-14T13:48:34.063Z,101125.24
2018-04-14T13:51:01.707Z,101117.25
2018-04-14T13:53:29.405Z,101120.41
2018-04-14T13:55:57.048Z,101123.35
2018-04-14T13:58:24.677Z,101120.56
2018-04-14T14:00:52.314Z,101116.44
2018-04-14T14:03:19.956Z,101116.09
2018-04-14T14:05:47.753Z,101110.83
2018-04-14T14:08:15.395Z,101112.81
2018-04-14T14:10:43.002Z,101102.63
2018-04-14T14:13:10.672Z,101105.39
2018-04-14T14:15:38.284Z,101107.41
2018-04-14T14:18:06.013Z,101099.70
2018-04-14T14:20:33.626Z,101099.51
2018-04-14T14:23:01.280Z,101097.13
2018-04-14T14:25:28.945Z,101091.97
2018-04-14T14:27:56.638Z,101084.55
2018-04-14T14:30:24.244Z,101084.08
2018-04-14T14:32:51.929Z,101085.59
2018-04-14T14:35:19.552Z,101078.79
2018-04-14T14:37:47.202Z,101075.48
2018-04-14T14:40:14.904Z,101074.58
2018-04-14T14:42:42.596Z,101066.14
2018-04-14T14:45:10.165Z,101067.95
2018-04-14T14:47:38.661Z,101061.38
2018-04-14T14:50:11.974Z,101073.03
2018-04-14T14:52:39.629Z,101059.06
2018-04-14T14:55:07.266Z,101064.84
2018-04-14T14:57:34.869Z,101067.84
2018-04-14T15:00:02.539Z,101057.16
2018-04-14T15:02:30.136Z,101054.36
2018-04-14T15:04:57.905Z,101051.30
2018-04-14T15:07:25.645Z,101046.87
2018-04-14T15:09:53.464Z,101045.21
2018-04-14T15:12:21.083Z,101045.12
2018-04-14T15:14:48.728Z,101041.75
2018-04-14T15:17:16.365Z,101039.83
2018-04-14T15:19:44.040Z,101034.16
2018-04-14T15:22:11.678Z,101028.48
2018-04-14T15:24:39.415Z,101030.76
2018-04-14T15:27:07.103Z,101030.53
2018-04-14T15:29:34.707Z,101024.92
2018-04-14T15:32:02.359Z,101036.30
2018-04-14T15:34:29.999Z,101040.77
2018-04-14T15:36:57.645Z,101040.61
2018-04-14T15:39:25.256Z,101043.50
2018-04-14T15:41:52.897Z,101037.09
2018-04-14T15:44:20.513Z,101042.12
2018-04-14T15:46:48.173Z,101029.38
2018-04-14T15:49:15.785Z,101033.34
2018-04-14T15:51:43.437Z,101028.99
2018-04-14T15:54:11.069Z,101029.13
2018-04-14T15:56:38.749Z,101032.50
2018-04-14T15:59:06.374Z,101031.92
2018-04-14T16:01:33.976Z,101029.29
2018-04-14T16:04:09.656Z,101027.20
2018-04-14T16:06:29.568Z,101026.43
2018-04-14T16:08:57.280Z,101021.55
2018-04-14T16:11:24.893Z,101027.25
2018-04-14T16:13:52.537Z,101024.84
2018-04-14T16:16:20.173Z,101031.85
2018-04-14T16:18:48.033Z,101028.23
2018-04-14T16:21:15.757Z,101028.53
2018-04-14T16:23:43.425Z,101026.53
2018-04-14T16:26:11.074Z,101025.55
2018-04-14T16:28:38.713Z,101028.12
2018-04-14T16:31:06.342Z,101032.52
2018-04-14T16:33:34.156Z,101027.80
2018-04-14T16:36:01.803Z,101033.19
2018-04-14T16:38:29.468Z,101032.32
2018-04-14T16:40:57.064Z,101033.63
2018-04-14T16:43:24.798Z,101034.86
2018-04-14T16:45:52.411Z,101039.21
2018-04-14T16:48:20.079Z,101036.66
2018-04-14T16:50:47.729Z,101035.91
2018-04-14T16:53:15.536Z,101031.22
2018-04-14T16:55:43.204Z,101036.18
2018-04-14T16:58:10.857Z,101027.36
2018-04-14T17:00:38.549Z,101021.23
2018-04-14T17:03:06.281Z,101026.86
2018-04-14T17:05:34.000Z,101028.56
2018-04-14T17:08:01.633Z,101026.73
2018-04-14T17:10:29.469Z,101025.98
2018-04-14T17:12:57.145Z,101027.74
2018-04-14T17:15:24.828Z,101028.78
2018-04-14T17:17:52.909Z,101017.91
2018-04-14T17:20:20.719Z,101021.94
2018-04-14T17:22:48.431Z,101025.10
2018-04-14T17:25:16.223Z,101021.41
2018-04-14T17:27:43.931Z,101021.84
2018-04-14T17:30:11.929Z,101016.22
2018-04-14T17:32:39.950Z,101024.47
2018-04-14T17:35:07.654Z,101022.36
2018-04-14T17:37:35.348Z,101021.16
2018-04-14T17:40:03.014Z,101018.47
2018-04-14T17:42:31.625Z,101018.69
2018-04-14T17:44:59.509Z,101022.20
2018-04-14T17:47:29.462Z,101023.67
2018-04-14T17:49:58.534Z,101022.63
2018-04-14T17:52:27.365Z,101022.95
2018-04-14T17:54:55.178Z,101022.79
2018-04-14T17:57:23.157Z,101021.33
2018-04-14T17:59:50.945Z,101021.23
2018-04-14T18:02:18.674Z,101021.20
2018-04-14T18:04:46.378Z,101019.05
2018-04-14T18:07:14.439Z,101019.27
2018-04-14T18:09:43.364Z,101018.24
2018-04-14T18:12:11.751Z,101015.95
2018-04-14T18:14:41.907Z,101011.77
2018-04-14T18:17:10.038Z,101013.50
2018-04-14T18:19:46.981Z,101013.05
2018-04-14T18:22:17.003Z,101012.83
2018-04-14T18:24:44.945Z,101012.45
2018-04-14T18:27:12.677Z,101008.92
2018-04-14T18:29:40.354Z,101011.32
2018-04-14T18:32:08.109Z,101013.20
2018-04-14T18:34:35.850Z,101016.84
2018-04-14T18:37:03.552Z,101015.12
2018-04-14T18:39:31.575Z,101012.57
2018-04-14T18:41:59.298Z,101020.05
2018-04-14T18:44:27.068Z,101023.85
2018-04-14T18:46:54.991Z,101027.73
2018-04-14T18:49:22.796Z,101027.34
2018-04-14T18:51:50.554Z,101025.73
2018-04-14T18:54:19.085Z,101026.98
2018-04-14T18:56:48.323Z,101027.20
2018-04-14T18:59:16.186Z,101030.70
2018-04-14T19:01:48.928Z,101032.06
2018-04-14T19:04:17.791Z,101030.86
2018-04-14T19:06:49.870Z,101037.37
2018-04-14T19:09:21.517Z,101035.81
2018-04-14T19:11:49.445Z,101036.48
2018-04-14T19:14:17.904Z,101032.88
2018-04-14T19:16:45.599Z,101037.10
2018-04-14T19:19:13.311Z,101027.25
2018-04-14T19:21:41.120Z,101020.31
2018-04-14T19:24:08.753Z,101031.21
2018-04-14T19:26:36.458Z,101027.55
2018-04-14T19:29:05.121Z,101031.58
2018-04-14T19:31:34.008Z,101030.91
2018-04-14T19:34:02.128Z,101027.40
2018-04-14T19:36:30.202Z,101036.20
2018-04-14T19:38:58.044Z,101037.56
2018-04-14T19:41:25.993Z,101024.79
2018-04-14T19:43:54.614Z,101025.77
2018-04-14T19:46:23.606Z,101029.67
2018-04-14T19:48:51.564Z,101029.03
2018-04-14T19:51:19.692Z,101028.16
2018-04-14T19:53:47.449Z,101021.54
2018-04-14T19:56:15.496Z,101020.44
2018-04-14T19:58:44.282Z,101017.57
2018-04-14T20:01:15.210Z,101017.31
2018-04-14T20:03:45.685Z,101014.53
2018-04-14T20:06:13.802Z,101010.14
2018-04-14T20:08:41.676Z,101011.81
2018-04-14T20:11:10.341Z,101011.45
2018-04-14T20:13:38.510Z,101006.84
2018-04-14T20:16:07.186Z,101010.02
2018-04-14T20:18:35.005Z,101012.78
2018-04-14T20:21:02.785Z,101020.70
2018-04-14T20:23:31.815Z,101023.20
2018-04-14T20:26:00.283Z,101022.08
2018-04-14T20:28:29.860Z,101015.03
2018-04-14T20:30:57.759Z,101018.91
2018-04-14T20:33:25.973Z,101012.56
2018-04-14T20:35:53.797Z,101010.61
2018-04-14T20:38:21.612Z,101012.52
2018-04-14T20:40:52.747Z,101015.50
2018-04-14T20:43:20.950Z,101008.24
2018-04-14T20:45:52.363Z,100999.52
2018-04-14T20:48:25.761Z,100995.41
2018-04-14T20:50:58.315Z,100995.72
2018-04-14T20:53:33.714Z,100990.05
2018-04-14T20:56:02.693Z,100987.45
2018-04-14T20:58:34.539Z,100985.39
2018-04-14T21:01:02.289Z,100988.70
2018-04-14T21:03:41.986Z,100989.15
2018-04-14T21:06:10.182Z,100989.34
2018-04-14T21:08:39.058Z,100979.02
2018-04-14T21:11:07.013Z,100980.14
2018-04-14T21:13:35.039Z,100977.25
2018-04-14T21:16:05.038Z,100980.34
2018-04-14T21:18:34.005Z,100981.09
2018-04-14T21:21:03.898Z,100976.05
2018-04-14T21:23:33.095Z,100973.91
2018-04-14T21:26:00.795Z,100969.58
2018-04-14T21:28:28.712Z,100974.17
2018-04-14T21:30:56.578Z,100968.98
2018-04-14T21:33:25.641Z,100961.27
2018-04-14T21:35:53.515Z,100958.94
2018-04-14T21:38:21.287Z,100962.17
2018-04-14T21:40:49.032Z,100965.22
2018-04-14T21:43:16.890Z,100965.81
2018-04-14T21:45:44.625Z,100957.55
2018-04-14T21:48:13.202Z,100957.06
2018-04-14T21:50:40.998Z,100954.23
2018-04-14T21:53:08.594Z,100953.48
2018-04-14T21:55:36.305Z,100955.45
2018-04-14T21:58:03.959Z,100954.48
2018-04-14T22:00:31.650Z,100954.70
2018-04-14T22:02:59.257Z,100949.66
2018-04-14T22:05:26.939Z,100948.19
2018-04-14T22:07:54.591Z,100952.59
2018-04-14T22:10:22.216Z,100957.06
2018-04-14T22:12:49.925Z,100950.56
2018-04-14T22:15:17.586Z,100952.52
2018-04-14T22:17:45.254Z,100950.38
2018-04-14T22:20:12.872Z,100950.19
2018-04-14T22:22:40.517Z,100955.69
2018-04-14T22:25:08.172Z,100953.61
2018-04-14T22:27:35.828Z,100948.50
2018-04-14T22:30:03.444Z,100948.48
2018-04-14T22:32:31.090Z,100941.61
2018-04-14T22:34:58.710Z,100942.44
2018-04-14T22:37:26.362Z,100943.22
2018-04-14T22:39:53.970Z,100942.23
2018-04-14T22:42:21.593Z,100941.81
2018-04-14T22:44:50.030Z,100945.92
2018-04-14T22:47:17.678Z,100951.02
2018-04-14T22:49:45.392Z,100949.11
2018-04-14T22:52:13.024Z,100961.00
2018-04-14T22:54:40.887Z,100972.84
2018-04-14T22:57:08.527Z,100980.10
2018-04-14T22:59:36.190Z,100980.17
2018-04-14T23:02:03.832Z,100984.40
2018-04-14T23:04:31.493Z,100988.34
2018-04-14T23:06:59.195Z,100987.20
2018-04-14T23:09:27.055Z,100989.78
2018-04-14T23:11:54.994Z,100995.68
2018-04-14T23:14:22.633Z,100997.38
2018-04-14T23:16:50.312Z,101000.47
2018-04-14T23:19:17.999Z,101007.20
2018-04-14T23:21:45.793Z,101006.39
2018-04-14T23:24:13.470Z,101013.00
2018-04-14T23:26:41.174Z,101013.63
2018-04-14T23:29:08.838Z,101012.54
2018-04-14T23:31:36.533Z,100997.41
2018-04-14T23:34:04.192Z,101010.92
2018-04-14T23:36:31.850Z,101004.58
2018-04-14T23:38:59.538Z,101012.95
2018-04-14T23:41:27.259Z,101009.02
2018-04-14T23:43:54.914Z,101001.66
2018-04-14T23:46:22.602Z,101004.21
2018-04-14T23:48:50.274Z,100999.91
2018-04-14T23:51:17.897Z,100999.54
2018-04-14T23:53:45.572Z,100993.66
2018-04-14T23:56:13.255Z,100992.98
2018-04-14T23:58:40.920Z,100992.42
